createdAt,value
2022-12-09T00:01:52.708Z,38.60
2022-12-09T00:04:36.184Z,34.73
2022-12-09T00:07:19.476Z,36.70
2022-12-09T00:10:05.302Z,31.60
2022-12-09T00:12:50.140Z,38.80
2022-12-09T00:15:33.302Z,36.17
2022-12-09T00:18:16.517Z,37.57
2022-12-09T00:21:00.202Z,35.17
2022-12-09T00:23:43.606Z,31.53
2022-12-09T00:26:29.442Z,30.93
2022-12-09T00:29:13.187Z,37.63
2022-12-09T00:31:56.827Z,35.50
2022-12-09T00:34:40.073Z,35.80
2022-12-09T00:37:23.150Z,37.93
2022-12-09T00:40:08.397Z,34.07
2022-12-09T00:42:55.238Z,60.20
2022-12-09T00:45:38.638Z,49.17
2022-12-09T00:48:21.819Z,46.80
2022-12-09T00:51:06.228Z,42.60
2022-12-09T00:53:53.901Z,50.13
2022-12-09T00:56:37.761Z,46.80
2022-12-09T00:59:22.790Z,48.03
2022-12-09T01:02:06.933Z,46.73
2022-12-09T01:04:54.921Z,47.87
2022-12-09T01:07:40.798Z,48.13
2022-12-09T01:10:25.007Z,47.20
2022-12-09T01:13:08.642Z,46.07
2022-12-09T01:15:53.322Z,42.40
2022-12-09T01:18:39.007Z,42.50
2022-12-09T01:21:22.744Z,35.73
2022-12-09T01:24:09.451Z,42.20
2022-12-09T01:26:52.990Z,40.73
2022-12-09T01:29:37.227Z,42.67
2022-12-09T01:32:22.110Z,39.97
2022-12-09T01:35:06.208Z,38.10
2022-12-09T01:37:49.608Z,39.60
2022-12-09T01:40:34.342Z,35.93
2022-12-09T01:43:19.715Z,34.73
2022-12-09T01:46:03.272Z,31.23
2022-12-09T01:48:48.324Z,31.93
2022-12-09T01:51:32.919Z,41.47
2022-12-09T01:54:17.068Z,40.27
2022-12-09T01:57:00.527Z,32.63
2022-12-09T01:59:45.375Z,36.13
2022-12-09T02:02:32.146Z,37.53
2022-12-09T02:05:17.942Z,36.33
2022-12-09T02:08:01.376Z,34.83
2022-12-09T02:10:51.734Z,34.27
2022-12-09T02:13:45.061Z,36.10
2022-12-09T02:16:33.896Z,40.13
2022-12-09T02:19:31.037Z,41.93
2022-12-09T02:22:22.859Z,37.63
2022-12-09T02:25:15.942Z,42.83
2022-12-09T02:28:21.611Z,40.20
2022-12-09T02:31:19.744Z,38.80
2022-12-09T02:34:12.803Z,42.13
2022-12-09T02:37:05.094Z,43.03
2022-12-09T02:40:00.325Z,39.20
2022-12-09T02:42:46.555Z,42.63
2022-12-09T02:45:32.332Z,37.07
2022-12-09T02:48:18.712Z,34.40
2022-12-09T02:51:07.929Z,40.20
2022-12-09T02:53:56.178Z,40.27
2022-12-09T02:56:42.318Z,46.13
2022-12-09T02:59:25.725Z,37.20
2022-12-09T03:02:19.964Z,45.90
2022-12-09T03:05:14.161Z,49.00
2022-12-09T03:08:08.304Z,41.20
2022-12-09T03:10:58.564Z,41.10
2022-12-09T03:13:51.202Z,42.43
2022-12-09T03:16:37.625Z,39.70
2022-12-09T03:19:26.771Z,35.90
2022-12-09T03:22:13.657Z,35.23
2022-12-09T03:25:03.789Z,35.87
2022-12-09T03:27:52.438Z,41.33
2022-12-09T03:30:39.710Z,37.50
2022-12-09T03:33:25.699Z,45.03
2022-12-09T03:36:12.577Z,41.90
2022-12-09T03:38:57.094Z,38.90
2022-12-09T03:41:47.698Z,38.40
2022-12-09T03:44:38.277Z,42.93
2022-12-09T03:47:22.743Z,34.30
2022-12-09T03:50:08.066Z,40.17
2022-12-09T03:52:55.283Z,37.83
2022-12-09T03:55:44.451Z,39.63
2022-12-09T03:58:33.457Z,46.27
2022-12-09T04:01:17.527Z,40.13
2022-12-09T04:04:02.473Z,37.10
2022-12-09T04:06:45.887Z,42.83
2022-12-09T04:09:29.291Z,39.70
2022-12-09T04:12:13.446Z,48.23
2022-12-09T04:14:58.119Z,67.13
2022-12-09T04:17:41.706Z,69.47
2022-12-09T04:20:25.051Z,77.00
2022-12-09T04:23:08.292Z,56.27
2022-12-09T04:25:51.798Z,63.60
2022-12-09T04:28:35.059Z,58.40
2022-12-09T04:31:20.803Z,61.13
2022-12-09T04:34:09.184Z,65.03
2022-12-09T04:36:52.864Z,69.27
2022-12-09T04:39:36.283Z,77.50
2022-12-09T04:42:19.891Z,83.37
2022-12-09T04:45:03.478Z,75.67
2022-12-09T04:47:48.085Z,84.03
2022-12-09T04:50:31.626Z,96.67
2022-12-09T04:53:14.684Z,104.27
2022-12-09T04:56:01.875Z,107.03
2022-12-09T04:58:45.168Z,107.43
2022-12-09T05:01:31.270Z,109.93
2022-12-09T05:04:16.478Z,108.30
2022-12-09T05:07:00.140Z,106.23
2022-12-09T05:09:43.778Z,119.47
2022-12-09T05:12:27.182Z,133.73
2022-12-09T05:15:11.584Z,142.23
2022-12-09T05:17:55.460Z,141.13
2022-12-09T05:20:42.321Z,141.50
2022-12-09T05:23:26.580Z,121.80
2022-12-09T05:26:13.358Z,113.20
2022-12-09T05:28:56.799Z,130.30
2022-12-09T05:31:40.387Z,128.53
2022-12-09T05:34:24.225Z,114.13
2022-12-09T05:37:09.520Z,108.17
2022-12-09T05:39:53.084Z,106.13
2022-12-09T05:42:41.174Z,106.00
2022-12-09T05:45:25.660Z,103.37
2022-12-09T05:48:09.303Z,95.10
2022-12-09T05:50:58.390Z,71.10
2022-12-09T05:53:43.294Z,61.70
2022-12-09T05:56:26.723Z,73.53
2022-12-09T05:59:11.506Z,66.83
2022-12-09T06:01:55.168Z,70.63
2022-12-09T06:04:38.661Z,71.33
2022-12-09T06:07:22.637Z,85.70
2022-12-09T06:10:08.921Z,83.17
2022-12-09T06:12:56.171Z,94.30
2022-12-09T06:15:39.272Z,79.80
2022-12-09T06:18:22.912Z,69.03
2022-12-09T06:21:09.356Z,59.83
2022-12-09T06:23:53.682Z,63.03
2022-12-09T06:26:38.844Z,64.33
2022-12-09T06:29:22.391Z,66.83
2022-12-09T06:32:06.381Z,70.80
2022-12-09T06:34:50.169Z,69.13
2022-12-09T06:37:33.805Z,59.23
2022-12-09T06:40:18.075Z,76.70
2022-12-09T06:43:02.733Z,79.93
2022-12-09T06:45:46.244Z,62.93
2022-12-09T06:48:29.588Z,62.50
2022-12-09T06:51:14.325Z,46.40
2022-12-09T06:53:57.686Z,52.10
2022-12-09T06:56:41.230Z,49.17
2022-12-09T06:59:26.280Z,51.47
2022-12-09T07:02:11.736Z,61.23
2022-12-09T07:04:56.451Z,66.27
2022-12-09T07:07:39.919Z,79.50
2022-12-09T07:10:23.687Z,77.60
2022-12-09T07:13:07.263Z,66.40
2022-12-09T07:15:52.285Z,72.50
2022-12-09T07:18:35.951Z,70.20
2022-12-09T07:21:20.887Z,60.57
2022-12-09T07:24:04.826Z,64.63
2022-12-09T07:26:49.308Z,65.90
2022-12-09T07:29:33.644Z,58.27
2022-12-09T07:32:18.566Z,60.27
2022-12-09T07:35:02.205Z,60.13
2022-12-09T07:37:45.842Z,66.70
2022-12-09T07:40:31.505Z,61.33
2022-12-09T07:43:15.023Z,76.10
2022-12-09T07:45:58.716Z,77.13
2022-12-09T07:48:43.676Z,76.77
2022-12-09T07:51:27.638Z,97.70
2022-12-09T07:54:13.893Z,86.13
2022-12-09T07:56:57.319Z,95.50
2022-12-09T07:59:40.861Z,81.73
2022-12-09T08:02:24.564Z,86.53
2022-12-09T08:05:11.102Z,99.00
2022-12-09T08:07:55.454Z,92.10
2022-12-09T08:10:39.154Z,98.07
2022-12-09T08:13:27.307Z,91.47
2022-12-09T08:16:13.412Z,77.17
2022-12-09T08:18:57.227Z,76.80
2022-12-09T08:21:42.543Z,75.57
2022-12-09T08:24:26.701Z,79.17
2022-12-09T08:27:10.521Z,71.37
2022-12-09T08:29:54.304Z,75.53
2022-12-09T08:32:37.914Z,78.00
2022-12-09T08:35:21.695Z,80.77
2022-12-09T08:38:07.210Z,64.43
2022-12-09T08:40:50.603Z,70.43
2022-12-09T08:43:34.401Z,60.27
2022-12-09T08:46:17.953Z,62.67
2022-12-09T08:49:03.560Z,69.57
2022-12-09T08:51:50.949Z,63.90
2022-12-09T08:54:35.816Z,63.03
2022-12-09T08:57:23.489Z,56.73
2022-12-09T09:00:09.667Z,51.50
2022-12-09T09:02:55.653Z,46.03
2022-12-09T09:05:40.540Z,48.33
2022-12-09T09:08:24.358Z,57.10
2022-12-09T09:11:12.377Z,67.17
2022-12-09T09:13:56.176Z,63.87
2022-12-09T09:16:40.894Z,47.60
2022-12-09T09:19:27.080Z,63.17
2022-12-09T09:22:11.222Z,54.73
2022-12-09T09:24:56.225Z,52.80
2022-12-09T09:27:42.125Z,58.70
2022-12-09T09:30:26.834Z,64.93
2022-12-09T09:33:10.585Z,66.27
2022-12-09T09:35:57.177Z,62.70
2022-12-09T09:38:41.001Z,67.77
2022-12-09T09:41:36.380Z,55.07
2022-12-09T09:44:36.746Z,73.90
2022-12-09T09:47:28.582Z,92.93
2022-12-09T09:50:30.934Z,87.37
2022-12-09T09:53:21.462Z,73.37
2022-12-09T09:56:09.637Z,71.10
2022-12-09T09:58:58.266Z,72.27
2022-12-09T10:01:45.948Z,63.67
2022-12-09T10:04:40.814Z,77.20
2022-12-09T10:07:30.312Z,86.23
2022-12-09T10:10:27.233Z,80.37
2022-12-09T10:13:26.784Z,86.07
2022-12-09T10:16:17.750Z,76.67
2022-12-09T10:19:10.702Z,92.23
2022-12-09T10:21:56.448Z,69.80
2022-12-09T10:24:47.740Z,72.43
2022-12-09T10:27:36.584Z,84.37
2022-12-09T10:30:21.605Z,69.63
2022-12-09T10:33:05.584Z,68.90
2022-12-09T10:35:50.426Z,84.07
2022-12-09T10:38:39.705Z,90.00
2022-12-09T10:42:00.731Z,90.97
2022-12-09T10:44:44.435Z,103.50
2022-12-09T10:47:30.930Z,108.97
2022-12-09T10:50:30.025Z,95.73
2022-12-09T10:53:16.787Z,108.43
2022-12-09T10:56:03.352Z,106.30
2022-12-09T10:58:46.756Z,91.17
2022-12-09T11:01:30.485Z,102.60
2022-12-09T11:04:15.261Z,87.70
2022-12-09T11:07:02.971Z,95.77
2022-12-09T11:09:50.019Z,97.00
2022-12-09T11:12:41.063Z,97.83
2022-12-09T11:15:29.694Z,81.57
2022-12-09T11:18:20.486Z,84.27
2022-12-09T11:21:06.785Z,97.53
2022-12-09T11:24:02.624Z,89.97
2022-12-09T11:26:48.395Z,96.57
2022-12-09T11:29:31.914Z,95.87
2022-12-09T11:32:16.077Z,84.73
2022-12-09T11:35:00.130Z,93.13
2022-12-09T11:37:45.550Z,75.83
2022-12-09T11:40:30.513Z,91.50
2022-12-09T11:43:15.744Z,81.80
2022-12-09T11:46:02.029Z,92.53
2022-12-09T11:48:59.088Z,75.43
2022-12-09T11:51:45.799Z,79.33
2022-12-09T11:54:36.156Z,76.30
2022-12-09T11:57:28.562Z,88.97
2022-12-09T12:00:20.311Z,79.40
2022-12-09T12:03:08.075Z,90.50
2022-12-09T12:05:56.275Z,68.90
2022-12-09T12:08:45.474Z,88.87
2022-12-09T12:11:35.859Z,75.93
2022-12-09T12:14:24.902Z,83.90
2022-12-09T12:17:20.256Z,76.63
2022-12-09T12:20:05.691Z,77.57
2022-12-09T12:23:17.511Z,82.53
2022-12-09T12:26:05.312Z,71.60
2022-12-09T12:29:09.728Z,78.77
2022-12-09T12:32:07.142Z,73.33
2022-12-09T12:35:03.916Z,83.57
2022-12-09T12:37:58.105Z,87.93
2022-12-09T12:40:49.447Z,79.07
2022-12-09T12:44:13.106Z,72.83
2022-12-09T12:47:04.180Z,78.00
2022-12-09T12:50:15.231Z,93.70
2022-12-09T12:53:10.264Z,86.90
2022-12-09T12:56:01.208Z,72.67
2022-12-09T12:58:59.247Z,82.33
2022-12-09T13:01:53.391Z,78.03
2022-12-09T13:04:45.356Z,71.43
2022-12-09T13:07:36.141Z,78.53
2022-12-09T13:10:33.659Z,68.13
2022-12-09T13:13:21.407Z,81.30
2022-12-09T13:16:15.958Z,75.10
2022-12-09T13:19:07.110Z,91.30
2022-12-09T13:21:50.936Z,81.17
2022-12-09T13:24:42.340Z,89.83
2022-12-09T13:27:37.877Z,76.83
2022-12-09T13:30:23.551Z,88.63
2022-12-09T13:33:19.944Z,73.13
2022-12-09T13:36:09.118Z,75.40
2022-12-09T13:38:52.363Z,89.20
2022-12-09T13:42:10.839Z,80.40
2022-12-09T13:45:07.310Z,82.43
2022-12-09T13:47:50.845Z,82.10
2022-12-09T13:50:39.664Z,76.43
2022-12-09T13:53:27.405Z,75.03
2022-12-09T13:56:22.663Z,77.03
2022-12-09T13:59:38.265Z,83.63
2022-12-09T14:02:32.804Z,78.20
2022-12-09T14:05:19.975Z,92.70
2022-12-09T14:08:05.814Z,89.07
2022-12-09T14:10:52.245Z,94.37
2022-12-09T14:13:36.809Z,86.27
2022-12-09T14:16:35.640Z,88.47
2022-12-09T14:19:52.686Z,95.87
2022-12-09T14:22:39.566Z,149.10
2022-12-09T14:26:01.017Z,138.10
2022-12-09T14:28:56.294Z,140.50
2022-12-09T14:32:02.990Z,104.67
2022-12-09T14:34:49.769Z,115.50
2022-12-09T14:38:16.300Z,108.87
2022-12-09T14:41:17.286Z,103.53
2022-12-09T14:44:10.785Z,114.17
2022-12-09T14:47:13.802Z,96.53
2022-12-09T14:50:10.013Z,89.30
2022-12-09T14:52:55.616Z,76.33
2022-12-09T14:55:42.427Z,82.60
2022-12-09T14:58:28.533Z,66.23
2022-12-09T15:01:13.178Z,77.43
2022-12-09T15:03:58.244Z,89.30
2022-12-09T15:06:42.895Z,69.03
2022-12-09T15:09:26.107Z,82.10
2022-12-09T15:12:13.738Z,76.57
2022-12-09T15:15:00.917Z,74.63
2022-12-09T15:17:47.486Z,79.77
2022-12-09T15:20:32.840Z,81.40
2022-12-09T15:23:22.241Z,64.80
2022-12-09T15:26:07.073Z,57.43
2022-12-09T15:28:52.257Z,71.43
2022-12-09T15:31:35.937Z,72.63
2022-12-09T15:34:26.272Z,50.43
2022-12-09T15:37:09.859Z,50.00
2022-12-09T15:40:00.132Z,56.53
2022-12-09T15:42:46.877Z,65.70
2022-12-09T15:45:34.311Z,54.87
2022-12-09T15:48:21.084Z,52.43
2022-12-09T15:51:08.984Z,65.43
2022-12-09T15:53:57.004Z,53.50
2022-12-09T15:56:46.069Z,65.37
2022-12-09T15:59:32.643Z,56.23
2022-12-09T16:02:25.429Z,54.97
2022-12-09T16:05:13.242Z,53.33
2022-12-09T16:08:00.511Z,52.87
2022-12-09T16:10:49.623Z,64.77
2022-12-09T16:13:57.446Z,61.30
2022-12-09T16:16:48.479Z,53.97
2022-12-09T16:19:38.401Z,57.40
2022-12-09T16:22:27.196Z,58.40
2022-12-09T16:25:20.836Z,67.13
2022-12-09T16:28:06.685Z,62.27
2022-12-09T16:30:54.431Z,64.57
2022-12-09T16:33:40.493Z,64.57
2022-12-09T16:36:27.980Z,77.57
2022-12-09T16:39:44.224Z,51.37
2022-12-09T16:42:36.501Z,52.53
2022-12-09T16:45:30.015Z,55.93
2022-12-09T16:48:17.286Z,54.67
2022-12-09T16:51:07.501Z,44.60
2022-12-09T16:53:52.708Z,62.50
2022-12-09T16:56:35.891Z,63.80
2022-12-09T16:59:19.286Z,48.10
2022-12-09T17:02:02.543Z,53.37
2022-12-09T17:04:47.475Z,51.03
2022-12-09T17:07:31.032Z,61.40
2022-12-09T17:10:15.455Z,63.90
2022-12-09T17:12:58.627Z,54.93
2022-12-09T17:15:42.809Z,53.33
2022-12-09T17:18:26.103Z,68.53
2022-12-09T17:21:12.966Z,48.10
2022-12-09T17:23:56.604Z,58.47
2022-12-09T17:26:39.665Z,73.10
2022-12-09T17:29:22.703Z,69.23
2022-12-09T17:32:06.283Z,68.37
2022-12-09T17:34:50.838Z,69.97
2022-12-09T17:37:35.433Z,61.23
2022-12-09T17:40:18.718Z,62.43
2022-12-09T17:43:02.057Z,58.17
2022-12-09T17:45:45.245Z,64.73
2022-12-09T17:48:29.345Z,62.67
2022-12-09T17:51:14.602Z,64.80
2022-12-09T17:54:00.413Z,70.07
2022-12-09T17:56:46.523Z,74.77
2022-12-09T17:59:29.641Z,62.73
2022-12-09T18:02:12.815Z,67.03
2022-12-09T18:04:55.857Z,75.13
2022-12-09T18:07:38.969Z,73.60
2022-12-09T18:10:23.622Z,69.27
2022-12-09T18:13:06.768Z,74.47
2022-12-09T18:15:54.303Z,65.47
2022-12-09T18:18:37.906Z,65.90
2022-12-09T18:21:21.768Z,66.43
2022-12-09T18:24:05.282Z,65.20
2022-12-09T18:26:50.666Z,73.07
2022-12-09T18:29:34.047Z,82.13
2022-12-09T18:32:17.381Z,57.00
2022-12-09T18:35:00.464Z,62.03
2022-12-09T18:37:43.784Z,48.87
2022-12-09T18:40:27.393Z,60.00
2022-12-09T18:43:11.851Z,67.57
2022-12-09T18:45:56.419Z,63.63
2022-12-09T18:48:39.808Z,76.03
2022-12-09T18:51:23.184Z,63.40
2022-12-09T18:54:07.329Z,51.30
2022-12-09T18:56:50.827Z,56.97
2022-12-09T18:59:35.325Z,59.23
2022-12-09T19:02:18.536Z,51.57
2022-12-09T19:05:01.947Z,64.00
2022-12-09T19:07:45.167Z,48.10
2022-12-09T19:10:28.814Z,53.40
2022-12-09T19:13:12.025Z,68.70
2022-12-09T19:15:59.282Z,46.63
2022-12-09T19:18:42.719Z,57.80
2022-12-09T19:21:27.372Z,49.20
2022-12-09T19:24:14.607Z,52.90
2022-12-09T19:26:58.492Z,54.13
2022-12-09T19:29:43.014Z,64.03
2022-12-09T19:32:51.867Z,64.97
2022-12-09T19:35:31.032Z,49.93
2022-12-09T19:38:14.608Z,53.83
2022-12-09T19:41:01.464Z,110.80
2022-12-09T19:43:45.235Z,67.93
2022-12-09T19:46:29.561Z,59.97
2022-12-09T19:49:18.686Z,70.80
2022-12-09T19:52:01.874Z,68.27
2022-12-09T19:54:45.003Z,66.30
2022-12-09T19:57:30.474Z,58.63
2022-12-09T20:00:14.932Z,65.67
2022-12-09T20:02:58.723Z,64.93
2022-12-09T20:05:50.930Z,63.13
2022-12-09T20:08:34.337Z,53.03
2022-12-09T20:11:21.875Z,56.73
2022-12-09T20:14:08.096Z,61.47
2022-12-09T20:16:51.165Z,80.73
2022-12-09T20:19:36.016Z,53.47
2022-12-09T20:22:22.141Z,59.80
2022-12-09T20:25:06.023Z,51.07
2022-12-09T20:27:49.732Z,45.93
2022-12-09T20:30:34.069Z,43.53
2022-12-09T20:33:17.258Z,45.70
2022-12-09T20:36:06.150Z,53.60
2022-12-09T20:38:52.505Z,54.63
2022-12-09T20:41:37.153Z,49.27
2022-12-09T20:44:21.201Z,45.67
2022-12-09T20:47:05.064Z,47.13
2022-12-09T20:49:49.262Z,41.40
2022-12-09T20:52:33.629Z,40.93
2022-12-09T20:55:18.373Z,41.07
2022-12-09T20:58:01.589Z,41.87
2022-12-09T21:00:45.771Z,45.93
2022-12-09T21:03:29.279Z,46.33
2022-12-09T21:06:15.495Z,43.53
2022-12-09T21:09:01.441Z,54.33
2022-12-09T21:11:46.792Z,64.63
2022-12-09T21:14:33.091Z,46.70
2022-12-09T21:17:16.534Z,63.63
2022-12-09T21:20:02.506Z,41.60
2022-12-09T21:22:54.957Z,38.40
2022-12-09T21:25:47.726Z,51.17
2022-12-09T21:28:32.232Z,38.77
2022-12-09T21:31:19.075Z,41.90
2022-12-09T21:34:05.478Z,43.87
2022-12-09T21:36:49.457Z,48.80
2022-12-09T21:39:33.241Z,43.43
2022-12-09T21:42:16.523Z,53.13
2022-12-09T21:45:01.084Z,60.70
2022-12-09T21:47:44.309Z,51.60
2022-12-09T21:50:27.532Z,49.27
2022-12-09T21:53:10.864Z,49.97
2022-12-09T21:55:54.362Z,49.43
2022-12-09T21:58:37.864Z,37.97
2022-12-09T22:01:24.280Z,50.83
2022-12-09T22:04:10.660Z,55.23
2022-12-09T22:06:54.851Z,44.60
2022-12-09T22:09:38.433Z,37.03
2022-12-09T22:12:21.576Z,39.00
2022-12-09T22:15:05.946Z,41.90
2022-12-09T22:17:50.500Z,44.07
2022-12-09T22:21:15.569Z,49.07
2022-12-09T22:23:37.155Z,47.33
2022-12-09T22:26:21.954Z,45.23
2022-12-09T22:29:06.554Z,38.43
2022-12-09T22:31:49.667Z,40.50
2022-12-09T22:34:34.199Z,41.43
2022-12-09T22:37:42.408Z,48.40
2022-12-09T22:40:23.262Z,48.63
2022-12-09T22:43:06.548Z,40.13
2022-12-09T22:45:49.971Z,44.43
2022-12-09T22:48:33.306Z,53.17
2022-12-09T22:51:20.928Z,42.13
2022-12-09T22:54:06.488Z,41.57
2022-12-09T22:56:49.663Z,37.50
2022-12-09T22:59:32.730Z,51.87
2022-12-09T23:02:16.032Z,47.83
2022-12-09T23:04:59.176Z,53.70
2022-12-09T23:07:44.071Z,43.70
2022-12-09T23:10:27.235Z,44.43
2022-12-09T23:13:10.453Z,54.80
2022-12-09T23:15:53.612Z,46.37
2022-12-09T23:18:37.395Z,38.43
2022-12-09T23:21:23.011Z,35.93
2022-12-09T23:24:11.064Z,34.80
2022-12-09T23:26:56.226Z,35.80
2022-12-09T23:29:39.617Z,35.77
2022-12-09T23:32:22.832Z,47.47
2022-12-09T23:35:07.706Z,34.33
2022-12-09T23:37:50.972Z,37.93
2022-12-09T23:40:35.564Z,44.20
2022-12-09T23:43:18.985Z,34.77
2022-12-09T23:46:02.864Z,34.73
2022-12-09T23:48:48.550Z,34.93
2022-12-09T23:51:33.362Z,43.93
2022-12-09T23:54:18.591Z,40.00
2022-12-09T23:57:03.463Z,40.33
2022-12-09T23:59:46.628Z,31.57
